Latest Coastal Weather Observations for Flinders Reef

IDQ60701

Issued at 4:12 am EST Thursday 23 November 2017 (issued every 10 minutes, with the page automatically refreshed every 10 minutes)

About coastal observations | Map of coastal stations | Coastal observations for QLD | Marine services | Other Formats
Station Details ID: 200783 Name: FLINDERS REEF Lat: -17.72 Lon: 148.45 Height: 2.6 m
Data from the previous 72 hours. | See also: Recent months at Flinders Reef
Date/Time
EST
Temp
°C
Wind Pressure Rain since
9am
mm
Weather Cloud Vis
km
Sea
Height
m
Swell
Dir  Spd
kts
Gust
kts
hPa Trend Height
m
Period
s
Dir
23/04:00am 25.5 ESE 12 14 1008.1 - - - - - - - - -
23/03:30am 25.7 SE 13 15 1007.8 - - - - - - - - -
23/03:24am 25.5 ESE 13 - 1007.6 - - - - - - - - -
23/03:00am 25.4 ESE 14 17 1007.7 - - - - - - - - -
23/02:30am 25.4 ESE 15 17 1008.0 - - - - - - - - -
23/02:24am 25.3 SE 15 - 1007.9 - - - - - - - - -
23/02:00am 25.6 SE 16 19 1008.0 - - - - - - - - -
23/01:30am 25.5 SE 17 19 1007.9 - - - - - - - - -
23/01:24am 25.5 SE 18 - 1008.0 - - - - - - - - -
23/01:00am 25.8 SE 15 19 1008.2 - - - - - - - - -
23/12:30am 25.7 SE 15 17 1008.7 - - - - - - - - -
23/12:24am 25.8 SE 14 - 1008.6 - - - - - - - - -
23/12:00am 25.9 SE 14 16 1009.0 - - - - - - - - -
 
Date/Time
EST
Temp
°C
Wind Pressure Rain since
9am
mm
Weather Cloud Vis
km
Sea
Height
m
Swell
Dir  Spd
kts
Gust
kts
hPa Trend Height
m
Period
s
Dir
22/11:30pm 25.7 SE 15 17 1009.2 - - - - - - - - -
22/11:24pm 25.9 SE 15 - 1009.1 - - - - - - - - -
22/11:00pm 26.0 SE 14 17 1009.3 - - - - - - - - -
22/10:30pm 25.8 SE 14 16 1009.7 - - - - - - - - -
22/10:24pm 25.9 SE 15 - 1009.6 - - - - - - - - -
22/10:00pm 25.8 SE 15 17 1009.8 - - - - - - - - -
22/09:30pm 26.0 SE 14 17 1009.6 - - - - - - - - -
22/09:24pm 26.1 SE 13 - 1009.6 - - - - - - - - -
22/09:00pm 25.8 SE 14 17 1009.5 - - - - - - - - -
22/08:30pm 25.8 SE 13 15 1009.5 - - - - - - - - -
22/08:24pm 26.0 SE 13 - 1009.4 - - - - - - - - -
22/08:00pm 25.9 SE 13 15 1009.5 - - - - - - - - -
22/07:30pm 25.7 SSE 13 15 1009.4 - - - - - - - - -
22/07:24pm 25.9 SSE 13 - 1009.3 - - - - - - - - -
22/07:00pm 25.9 SE 14 16 1009.0 - - - - - - - - -
22/06:30pm 25.8 SE 13 14 1008.8 - - - - - - - - -
22/06:24pm 25.8 SE 13 - 1008.7 - - - - - - - - -
22/06:00pm 26.0 SE 13 15 1008.4 - - - - - - - - -
22/05:30pm 26.0 SE 13 15 1008.3 - - - - - - - - -
22/05:24pm 25.9 SE 13 - 1008.3 - - - - - - - - -
22/05:00pm 25.7 SE 13 15 1008.0 - - - - - - - - -
22/04:30pm 25.9 SE 12 14 1008.1 - - - - - - - - -
22/04:24pm 25.9 SE 13 - 1008.0 - - - - - - - - -
22/04:00pm 26.4 SE 13 16 1008.0 - - - - - - - - -
22/03:30pm 25.9 SE 15 17 1007.7 - - - - - - - - -
22/03:24pm 25.8 ESE 15 - 1007.6 - - - - - - - - -
22/03:00pm 26.0 SE 13 15 1008.1 - - - - - - - - -
22/02:30pm 26.1 ESE 13 16 1008.2 - - - - - - - - -
22/02:24pm 26.0 ESE 13 - 1008.2 - - - - - - - - -
22/02:00pm 26.1 ESE 13 16 1008.6 - - - - - - - - -
22/01:30pm 26.1 ESE 13 15 1008.6 - - - - - - - - -
22/01:24pm 26.1 ESE 14 - 1008.6 - - - - - - - - -
22/01:00pm 25.9 ESE 15 17 1008.8 - - - - - - - - -
22/12:30pm 25.8 ESE 15 17 1009.1 - - - - - - - - -
22/12:24pm 25.7 ESE 15 - 1009.1 - - - - - - - - -
22/12:00pm 25.8 ESE 15 18 1009.5 - - - - - - - - -
22/11:30am 25.9 ESE 14 17 1009.9 - - - - - - - - -
22/11:24am 26.0 ESE 15 - 1009.9 - - - - - - - - -
22/11:00am 26.0 E 14 16 1009.9 - - - - - - - - -
22/10:30am 25.9 ESE 13 16 1010.1 - - - - - - - - -
22/10:24am 25.8 ESE 14 - 1010.0 - - - - - - - - -
22/10:00am 25.8 ESE 16 18 1010.2 - - - - - - - - -
22/09:30am 26.0 ESE 15 17 1010.4 - - - - - - - - -
22/09:24am 25.9 ESE 15 - 1010.4 - - - - - - - - -
22/09:00am 25.7 ESE 16 17 1010.5 - - - - - - - - -
22/08:30am 26.1 ESE 15 17 1010.3 - - - - - - - - -
22/08:24am 25.7 ESE 14 - 1010.1 - - - - - - - - -
22/08:00am 25.8 ESE 15 17 1010.2 - - - - - - - - -
22/07:30am 25.7 ESE 18 21 1009.9 - - - - - - - - -
22/07:24am 25.7 ESE 18 - 1009.5 - - - - - - - - -
22/07:00am 25.8 ESE 18 20 1009.5 - - - - - - - - -
22/06:30am 25.7 E 18 21 1009.1 - - - - - - - - -
22/06:24am 25.6 ESE 17 - 1009.1 - - - - - - - - -
22/06:00am 25.7 E 16 19 1009.1 - - - - - - - - -
22/05:30am 25.7 E 16 18 1008.9 - - - - - - - - -
22/05:24am 25.7 E 16 - 1008.6 - - - - - - - - -
22/05:00am 25.5 E 15 19 1008.9 - - - - - - - - -
22/04:30am 25.5 E 15 17 1008.8 - - - - - - - - -
22/04:24am 25.4 ESE 15 - 1008.8 - - - - - - - - -
22/04:00am 25.6 E 15 17 1008.7 - - - - - - - - -
22/03:30am 25.4 ESE 16 19 1008.3 - - - - - - - - -
22/03:24am 25.7 ESE 16 - 1008.3 - - - - - - - - -
22/03:00am 25.4 E 17 19 1008.4 - - - - - - - - -
22/02:30am 25.5 ESE 17 20 1008.4 - - - - - - - - -
22/02:24am 25.5 ESE 17 - 1008.2 - - - - - - - - -
22/02:00am 25.4 E 17 20 1008.3 - - - - - - - - -
22/01:30am 25.4 ESE 19 22 1008.6 - - - - - - - - -
22/01:24am 25.5 ESE 19 - 1008.7 - - - - - - - - -
22/01:00am 25.5 ESE 18 20 1009.2 - - - - - - - - -
22/12:30am 25.7 ESE 19 21 1009.3 - - - - - - - - -
22/12:24am 25.4 ESE 18 - 1009.3 - - - - - - - - -
22/12:00am 25.8 ESE 19 23 1009.6 - - - - - - - - -
 
Date/Time
EST
Temp
°C
Wind Pressure Rain since
9am
mm
Weather Cloud Vis
km
Sea
Height
m
Swell
Dir  Spd
kts
Gust
kts
hPa Trend Height
m
Period
s
Dir
21/11:30pm 25.8 ESE 17 20 1010.0 - - - - - - - - -
21/11:24pm 25.9 ESE 19 - 1009.9 - - - - - - - - -
21/11:00pm 25.6 E 21 24 1010.0 - - - - - - - - -
21/10:30pm 26.0 E 21 24 1010.3 - - - - - - - - -
21/10:24pm 25.6 E 21 - 1010.4 - - - - - - - - -
21/10:00pm 25.9 E 18 21 1010.8 - - - - - - - - -
21/09:30pm 25.9 E 18 21 1010.8 - - - - - - - - -
21/09:24pm 25.6 E 19 - 1010.8 - - - - - - - - -
21/09:00pm 26.0 E 19 21 1010.9 - - - - - - - - -
21/08:30pm 25.6 E 19 22 1010.7 - - - - - - - - -
21/08:24pm 25.7 E 20 - 1010.5 - - - - - - - - -
21/08:00pm 25.3 E 21 24 1010.6 - - - - - - - - -
21/07:30pm 25.3 ESE 20 23 1010.3 - - - - - - - - -
21/07:24pm 25.7 ESE 20 - 1010.1 - - - - - - - - -
21/07:00pm 25.8 E 19 24 1010.4 - - - - - - - - -
21/06:30pm 25.5 ESE 17 20 1010.0 - - - - - - - - -
21/06:24pm 25.4 ESE 18 - 1010.0 - - - - - - - - -
21/06:00pm 25.4 ESE 20 24 1009.9 - - - - - - - - -
21/05:30pm 25.7 ESE 18 20 1009.9 - - - - - - - - -
21/05:24pm 25.7 ESE 17 - 1009.7 - - - - - - - - -
21/05:00pm 25.9 ESE 16 19 1009.7 - - - - - - - - -
21/04:30pm 25.5 ESE 16 19 1009.7 - - - - - - - - -
21/04:24pm 25.6 ESE 16 - 1009.7 - - - - - - - - -
21/04:00pm 25.4 ESE 15 17 1009.8 - - - - - - - - -
21/03:30pm 25.6 ESE 16 18 1010.0 - - - - - - - - -
21/03:24pm 25.3 ESE 16 - 1010.1 - - - - - - - - -
21/03:00pm 25.6 ESE 16 18 1010.4 - - - - - - - - -
21/02:30pm 25.5 ESE 15 18 1010.5 - - - - - - - - -
21/02:24pm 25.1 ESE 15 - 1010.4 - - - - - - - - -
21/02:00pm 25.6 ESE 17 19 1010.7 - - - - - - - - -
21/01:30pm 25.9 ESE 15 17 1010.9 - - - - - - - - -
21/01:24pm 25.9 ESE 15 - 1011.0 - - - - - - - - -
21/01:00pm 25.7 ESE 15 17 1011.3 - - - - - - - - -
21/12:30pm 25.6 E 13 16 1011.5 - - - - - - - - -
21/12:24pm 25.6 E 13 - 1011.6 - - - - - - - - -
21/12:00pm 25.4 E 13 14 1011.8 - - - - - - - - -
21/11:30am 24.5 E 13 17 1012.1 - - - - - - - - -
21/11:24am 24.7 E 13 - 1012.1 - - - - - - - - -
21/11:00am 23.9 ESE 19 23 1012.2 - - - - - - - - -
21/10:30am 26.2 E 1 16 1012.2 - - - - - - - - -
21/10:24am 26.3 E 15 - 1012.2 - - - - - - - - -
21/10:00am 26.0 ESE 14 17 1012.2 - - - - - - - - -
21/09:46am 24.7 SE 20 23 1012.3 - - - - - - - - -
21/09:30am 26.4 E 14 17 1012.4 - - - - - - - - -
21/09:24am 25.7 E 16 - 1012.3 - - - - - - - - -
21/09:00am 24.7 E 15 18 1012.1 - - - - - - - - -
21/08:30am 23.8 E 14 16 1012.3 - - - - - - - - -
21/08:24am 23.6 ESE 15 - 1012.3 - - - - - - - - -
21/08:08am 24.4 E 17 28 1012.0 - - - - - - - - -
21/08:00am 25.8 E 14 17 1012.1 - - - - - - - - -
21/07:30am 25.7 E 16 19 1011.7 - - - - - - - - -
21/07:24am 25.7 E 17 - 1011.5 - - - - - - - - -
21/07:00am 25.5 E 17 19 1011.6 - - - - - - - - -
21/06:30am 25.6 ESE 17 20 1011.4 - - - - - - - - -
21/06:24am 25.7 ESE 18 - 1011.2 - - - - - - - - -
21/06:00am 25.5 ESE 18 21 1010.8 - - - - - - - - -
21/05:30am 25.3 ESE 18 21 1010.4 - - - - - - - - -
21/05:24am 25.4 ESE 18 - 1010.2 - - - - - - - - -
21/05:00am 25.7 ESE 19 22 1010.2 - - - - - - - - -
21/04:30am 25.6 ESE 20 22 1010.0 - - - - - - - - -
21/04:24am 25.5 ESE 19 - 1009.9 - - - - - - - - -
21/04:00am 25.5 E 19 22 1009.9 - - - - - - - - -
21/03:30am 25.1 E 18 21 1010.2 - - - - - - - - -
21/03:24am 25.1 ESE 18 - 1010.2 - - - - - - - - -
21/03:00am 23.3 ESE 20 27 1010.6 - - - - - - - - -
21/02:44am 23.8 ESE 22 27 1010.5 - - - - - - - - -
21/02:30am 23.9 E 13 15 1010.6 - - - - - - - - -
21/02:24am 23.9 E 14 - 1010.7 - - - - - - - - -
21/02:08am 22.8 E 16 20 1010.9 - - - - - - - - -
21/02:00am 22.5 ESE 22 34 1011.0 - - - - - - - - -
21/01:57am 22.2 ESE 24 34 1011.1 - - - - - - - - -
21/01:53am 22.8 ESE 27 34 1011.0 - - - - - - - - -
21/01:50am 24.9 E 16 26 1011.0 - - - - - - - - -
21/01:30am 25.3 E 17 21 1011.2 - - - - - - - - -
21/01:24am 25.2 E 18 - 1011.1 - - - - - - - - -
21/01:00am 25.2 ESE 19 22 1011.4 - - - - - - - - -
21/12:30am 22.9 E 15 19 1011.8 - - - - - - - - -
21/12:24am 23.6 E 15 - 1011.8 - - - - - - - - -
21/12:00am 25.8 E 13 15 1012.2 - - - - - - - - -
 
Date/Time
EST
Temp
°C
Wind Pressure Rain since
9am
mm
Weather Cloud Vis
km
Sea
Height
m
Swell
Dir  Spd
kts
Gust
kts
hPa Trend Height
m
Period
s
Dir
20/11:58pm 25.5 E 13 15 1012.2 - - - - - - - - -
20/11:30pm 25.2 ESE 22 25 1012.5 - - - - - - - - -
20/11:24pm 26.1 ESE 15 - 1012.5 - - - - - - - - -
20/11:00pm 26.0 E 12 16 1012.7 - - - - - - - - -
20/10:30pm 26.0 ESE 14 16 1013.2 - - - - - - - - -
20/10:24pm 26.1 E 14 - 1013.2 - - - - - - - - -
20/10:00pm 26.2 ESE 15 17 1013.5 - - - - - - - - -
20/09:30pm 26.1 ESE 16 18 1013.0 - - - - - - - - -
20/09:24pm 25.9 ESE 17 - 1012.8 - - - - - - - - -
20/09:00pm 25.8 ESE 16 19 1012.4 - - - - - - - - -
20/08:30pm 26.3 E 18 21 1011.9 - - - - - - - - -
20/08:24pm 26.1 E 19 - 1011.6 - - - - - - - - -
20/08:00pm 26.1 ESE 18 21 1011.6 - - - - - - - - -
20/07:30pm 26.1 ESE 19 22 1011.5 - - - - - - - - -
20/07:24pm 26.2 ESE 19 - 1011.3 - - - - - - - - -
20/07:00pm 26.3 ESE 16 19 1011.5 - - - - - - - - -
20/06:30pm 26.2 ESE 15 17 1011.4 - - - - - - - - -
20/06:24pm 25.9 ESE 15 - 1011.3 - - - - - - - - -
20/06:00pm 26.2 SE 15 17 1011.4 - - - - - - - - -
20/05:30pm 25.9 SE 16 18 1011.5 - - - - - - - - -
20/05:24pm 26.0 SE 17 - 1011.3 - - - - - - - - -
20/05:00pm 26.1 ESE 13 15 1011.3 - - - - - - - - -
20/04:30pm 26.0 ESE 13 14 1011.2 - - - - - - - - -
20/04:24pm 26.0 ESE 11 - 1011.1 - - - - - - - - -
20/04:00pm 26.2 ESE 10 13 1011.2 - - - - - - - - -
20/03:30pm 26.2 ESE 11 13 1011.2 - - - - - - - - -
20/03:24pm 26.1 ESE 11 - 1011.1 - - - - - - - - -
20/03:00pm 26.2 SE 10 12 1011.4 - - - - - - - - -
20/02:30pm 26.3 ESE 9 11 1011.5 - - - - - - - - -
20/02:24pm 26.2 ESE 9 - 1011.5 - - - - - - - - -
20/02:00pm 26.3 ESE 10 11 1011.7 - - - - - - - - -
20/01:30pm 26.4 ESE 10 12 1011.7 - - - - - - - - -
20/01:24pm 26.2 ESE 10 - 1011.7 - - - - - - - - -
20/01:00pm 26.4 ESE 9 11 1012.1 - - - - - - - - -
20/12:30pm 26.3 ESE 9 11 1012.2 - - - - - - - - -
20/12:24pm 26.6 ESE 10 - 1012.2 - - - - - - - - -
20/12:00pm 26.5 E 10 12 1012.5 - - - - - - - - -
20/11:30am 26.4 E 11 12 1012.7 - - - - - - - - -
20/11:24am 26.3 ESE 11 - 1012.6 - - - - - - - - -
20/11:00am 26.7 E 10 11 1013.0 - - - - - - - - -
20/10:30am 26.5 E 11 14 1013.2 - - - - - - - - -
20/10:24am 26.7 E 11 - 1013.1 - - - - - - - - -
20/10:00am 26.8 E 10 12 1013.4 - - - - - - - - -
20/09:30am 26.8 E 11 13 1013.6 - - - - - - - - -
20/09:24am 26.9 E 10 - 1013.5 - - - - - - - - -
20/09:00am 26.9 E 11 13 1013.5 - - - - - - - - -
20/08:30am 27.0 E 11 13 1013.5 - - - - - - - - -
20/08:24am 26.9 E 11 - 1013.4 - - - - - - - - -
20/08:00am 26.6 E 11 13 1013.2 - - - - - - - - -
20/07:30am 26.7 E 12 15 1013.2 - - - - - - - - -
20/07:24am 27.0 E 11 - 1013.1 - - - - - - - - -
20/07:00am 26.5 E 12 15 1012.9 - - - - - - - - -
20/06:30am 26.1 E 13 14 1012.7 - - - - - - - - -
20/06:24am 26.2 E 13 - 1012.5 - - - - - - - - -
20/06:00am 25.8 E 14 16 1012.2 - - - - - - - - -
20/05:30am 25.6 E 15 16 1011.7 - - - - - - - - -
20/05:24am 25.6 E 15 - 1011.7 - - - - - - - - -
20/05:00am 25.6 E 12 14 1011.6 - - - - - - - - -
20/04:30am 25.6 E 11 14 1011.3 - - - - - - - - -
20/04:24am 25.7 E 12 - 1011.2 - - - - - - - - -

Other Formats:

Comma delimited format used in spreadsheet applications
http://www.bom.gov.au/fwo/IDQ60701/IDQ60701.94290.axf

JavaScript Object Notation format (JSON) in row-major order
http://www.bom.gov.au/fwo/IDQ60701/IDQ60701.94290.json